createdAt,value
2023-01-01T00:01:42.344Z,67.30
2023-01-01T00:04:13.655Z,67.49
2023-01-01T00:06:41.702Z,67.55
2023-01-01T00:09:27.274Z,67.86
2023-01-01T00:11:55.051Z,67.70
2023-01-01T00:14:22.905Z,67.51
2023-01-01T00:16:52.148Z,66.39
2023-01-01T00:19:20.198Z,67.98
2023-01-01T00:21:47.990Z,67.74
2023-01-01T00:24:16.012Z,66.13
2023-01-01T00:26:43.845Z,66.73
2023-01-01T00:29:11.643Z,66.28
2023-01-01T00:31:39.477Z,66.24
2023-01-01T00:34:11.050Z,66.47
2023-01-01T00:36:38.960Z,66.39
2023-01-01T00:39:06.834Z,66.61
2023-01-01T00:41:34.643Z,66.86
2023-01-01T00:44:02.822Z,66.72
2023-01-01T00:46:30.649Z,66.45
2023-01-01T00:48:58.573Z,66.00
2023-01-01T00:51:31.702Z,67.02
2023-01-01T00:54:04.638Z,66.93
2023-01-01T00:56:32.453Z,67.19
2023-01-01T00:59:01.461Z,64.98
2023-01-01T01:01:30.152Z,66.00
2023-01-01T01:03:58.392Z,65.06
2023-01-01T01:06:28.027Z,65.61
2023-01-01T01:08:55.885Z,64.45
2023-01-01T01:11:26.557Z,62.97
2023-01-01T01:13:56.981Z,63.36
2023-01-01T01:16:27.422Z,63.18
2023-01-01T01:18:57.612Z,62.95
2023-01-01T01:21:28.335Z,63.91
2023-01-01T01:23:58.790Z,62.76
2023-01-01T01:26:28.052Z,62.85
2023-01-01T01:28:55.963Z,62.33
2023-01-01T01:31:25.909Z,62.12
2023-01-01T01:33:53.740Z,60.91
2023-01-01T01:36:21.743Z,61.82
2023-01-01T01:38:51.255Z,60.81
2023-01-01T01:41:27.930Z,60.69
2023-01-01T01:43:59.788Z,60.92
2023-01-01T01:46:32.745Z,60.91
2023-01-01T01:49:05.025Z,61.92
2023-01-01T01:51:37.140Z,62.07
2023-01-01T01:54:12.079Z,60.17
2023-01-01T01:56:45.492Z,59.82
2023-01-01T01:59:14.277Z,61.22
2023-01-01T02:01:42.812Z,60.83
2023-01-01T02:04:11.638Z,60.45
2023-01-01T02:06:40.364Z,61.48
2023-01-01T02:09:10.860Z,61.40
2023-01-01T02:11:38.820Z,60.09
2023-01-01T02:14:07.196Z,61.62
2023-01-01T02:16:40.773Z,61.15
2023-01-01T02:19:18.470Z,61.03
2023-01-01T02:21:57.714Z,61.71
2023-01-01T02:24:43.240Z,60.63
2023-01-01T02:27:20.139Z,61.04
2023-01-01T02:29:53.887Z,60.85
2023-01-01T02:32:26.060Z,61.23
2023-01-01T02:34:59.425Z,60.95
2023-01-01T02:37:30.382Z,61.91
2023-01-01T02:40:00.712Z,61.96
2023-01-01T02:42:30.751Z,61.52
2023-01-01T02:45:01.311Z,59.87
2023-01-01T02:47:29.118Z,60.89
2023-01-01T02:50:04.246Z,60.73
2023-01-01T02:52:57.683Z,61.57
2023-01-01T02:55:47.158Z,61.05
2023-01-01T02:58:41.578Z,62.53
2023-01-01T03:01:16.850Z,62.20
2023-01-01T03:03:57.309Z,60.94
2023-01-01T03:06:33.572Z,62.25
2023-01-01T03:09:11.465Z,61.46
2023-01-01T03:11:47.871Z,61.05
2023-01-01T03:14:22.458Z,61.63
2023-01-01T03:16:56.328Z,61.55
2023-01-01T03:19:26.523Z,62.28
2023-01-01T03:21:58.645Z,63.04
2023-01-01T03:24:31.330Z,62.23
2023-01-01T03:27:03.371Z,62.73
2023-01-01T03:29:36.059Z,61.91
2023-01-01T03:32:08.699Z,62.07
2023-01-01T03:34:41.529Z,62.20
2023-01-01T03:37:13.496Z,62.71
2023-01-01T03:39:47.369Z,61.74
2023-01-01T03:42:22.997Z,61.95
2023-01-01T03:44:53.894Z,62.28
2023-01-01T03:47:23.197Z,62.86
2023-01-01T03:49:51.378Z,62.90
2023-01-01T03:52:31.825Z,62.71
2023-01-01T03:55:07.925Z,63.23
2023-01-01T03:57:45.268Z,62.79
2023-01-01T04:00:17.911Z,63.11
2023-01-01T04:02:53.909Z,63.57
2023-01-01T04:05:23.069Z,64.75
2023-01-01T04:07:52.893Z,64.26
2023-01-01T04:10:21.543Z,64.06
2023-01-01T04:12:51.580Z,64.92
2023-01-01T04:15:20.973Z,65.42
2023-01-01T04:17:50.166Z,64.93
2023-01-01T04:20:18.646Z,65.15
2023-01-01T04:22:47.421Z,65.24
2023-01-01T04:25:15.621Z,65.65
2023-01-01T04:27:43.440Z,65.88
2023-01-01T04:30:14.627Z,65.13
2023-01-01T04:32:42.798Z,65.45
2023-01-01T04:35:13.862Z,66.27
2023-01-01T04:37:43.045Z,65.70
2023-01-01T04:40:15.490Z,66.77
2023-01-01T04:42:44.299Z,66.19
2023-01-01T04:45:15.227Z,66.63
2023-01-01T04:47:43.453Z,66.73
2023-01-01T04:50:12.716Z,66.68
2023-01-01T04:52:40.495Z,66.63
2023-01-01T04:55:08.870Z,67.58
2023-01-01T04:57:36.629Z,67.50
2023-01-01T05:00:05.474Z,67.10
2023-01-01T05:02:33.372Z,67.35
2023-01-01T05:05:01.234Z,67.70
2023-01-01T05:07:30.381Z,67.37
2023-01-01T05:09:58.171Z,68.29
2023-01-01T05:12:25.981Z,67.88
2023-01-01T05:14:53.784Z,68.12
2023-01-01T05:17:21.616Z,68.26
2023-01-01T05:19:49.386Z,67.84
2023-01-01T05:22:17.127Z,68.09
2023-01-01T05:24:47.390Z,68.69
2023-01-01T05:27:15.198Z,69.18
2023-01-01T05:29:42.998Z,68.22
2023-01-01T05:37:04.149Z,68.93
2023-01-01T05:39:31.922Z,68.46
2023-01-01T05:42:01.121Z,69.21
2023-01-01T05:44:29.122Z,69.40
2023-01-01T05:46:56.902Z,68.88
2023-01-01T05:49:24.731Z,69.42
2023-01-01T05:51:52.557Z,69.27
2023-01-01T05:54:20.387Z,69.38
2023-01-01T05:56:48.186Z,69.51
2023-01-01T05:59:17.353Z,69.90
2023-01-01T06:01:46.049Z,69.63
2023-01-01T06:04:14.650Z,69.73
2023-01-01T06:06:42.511Z,69.43
2023-01-01T06:09:11.303Z,69.74
2023-01-01T06:11:39.074Z,69.08
2023-01-01T06:14:06.858Z,69.24
2023-01-01T06:16:36.327Z,69.81
2023-01-01T06:19:04.303Z,69.96
2023-01-01T06:21:32.164Z,70.15
2023-01-01T06:24:00.783Z,70.11
2023-01-01T06:26:30.738Z,69.83
2023-01-01T06:28:59.299Z,69.67
2023-01-01T06:31:28.117Z,70.25
2023-01-01T06:33:57.351Z,70.03
2023-01-01T06:36:26.896Z,69.69
2023-01-01T06:38:58.658Z,70.10
2023-01-01T06:41:28.464Z,70.28
2023-01-01T06:43:56.912Z,70.00
2023-01-01T06:46:26.226Z,70.51
2023-01-01T06:48:56.099Z,70.38
2023-01-01T06:51:27.548Z,70.53
2023-01-01T06:53:55.829Z,70.10
2023-01-01T06:56:23.711Z,70.26
2023-01-01T06:58:51.608Z,70.57
2023-01-01T07:01:21.195Z,70.98
2023-01-01T07:03:52.378Z,70.89
2023-01-01T07:06:20.327Z,71.16
2023-01-01T07:08:49.605Z,71.35
2023-01-01T07:11:17.559Z,71.93
2023-01-01T07:13:45.803Z,71.08
2023-01-01T07:16:15.461Z,71.72
2023-01-01T07:18:43.418Z,72.02
2023-01-01T07:21:29.837Z,72.38
2023-01-01T07:24:00.346Z,72.37
2023-01-01T07:26:29.893Z,73.34
2023-01-01T07:29:05.973Z,73.65
2023-01-01T07:31:35.447Z,74.58
2023-01-01T07:34:03.395Z,74.55
2023-01-01T07:36:31.215Z,75.87
2023-01-01T07:39:00.679Z,76.15
2023-01-01T07:41:28.491Z,76.15
2023-01-01T07:43:56.502Z,77.25
2023-01-01T07:46:24.485Z,77.72
2023-01-01T07:48:52.420Z,77.71
2023-01-01T07:51:20.307Z,78.75
2023-01-01T07:53:48.088Z,79.14
2023-01-01T07:56:17.422Z,79.09
2023-01-01T07:58:45.314Z,78.96
2023-01-01T08:01:14.651Z,79.14
2023-01-01T08:03:42.927Z,79.25
2023-01-01T08:06:12.133Z,79.53
2023-01-01T08:08:40.282Z,80.42
2023-01-01T08:11:08.463Z,80.17
2023-01-01T08:13:37.885Z,80.03
2023-01-01T08:16:06.764Z,80.49
2023-01-01T08:18:34.707Z,80.56
2023-01-01T08:21:02.873Z,80.03
2023-01-01T08:23:31.535Z,80.25
2023-01-01T08:26:03.204Z,80.50
2023-01-01T08:28:31.524Z,80.29
2023-01-01T08:31:00.786Z,80.37
2023-01-01T08:33:28.656Z,80.58
2023-01-01T08:35:56.645Z,80.58
2023-01-01T08:38:24.575Z,80.70
2023-01-01T08:40:52.689Z,80.26
2023-01-01T08:43:21.034Z,81.50
2023-01-01T08:45:48.946Z,80.45
2023-01-01T08:48:18.312Z,81.29
2023-01-01T08:50:46.333Z,81.67
2023-01-01T08:53:14.151Z,81.26
2023-01-01T08:55:41.977Z,81.06
2023-01-01T08:58:09.831Z,81.46
2023-01-01T09:00:37.718Z,80.95
2023-01-01T09:03:05.988Z,80.88
2023-01-01T09:05:35.186Z,80.80
2023-01-01T09:08:03.000Z,80.84
2023-01-01T09:10:31.572Z,81.30
2023-01-01T09:12:59.401Z,80.60
2023-01-01T09:15:27.180Z,80.98
2023-01-01T09:17:55.001Z,80.94
2023-01-01T09:20:22.976Z,81.31
2023-01-01T09:22:52.403Z,80.68
2023-01-01T09:25:20.401Z,80.94
2023-01-01T09:27:49.608Z,81.26
2023-01-01T09:30:17.604Z,80.46
2023-01-01T09:32:45.404Z,81.05
2023-01-01T09:35:13.405Z,80.97
2023-01-01T09:37:41.359Z,80.83
2023-01-01T09:40:25.642Z,80.54
2023-01-01T09:43:02.132Z,80.64
2023-01-01T09:45:32.714Z,81.09
2023-01-01T09:48:07.239Z,80.68
2023-01-01T09:50:39.706Z,81.07
2023-01-01T09:53:13.811Z,80.72
2023-01-01T09:55:47.328Z,80.28
2023-01-01T09:58:15.206Z,80.34
2023-01-01T10:00:46.553Z,80.52
2023-01-01T10:03:32.520Z,80.73
2023-01-01T10:06:13.059Z,81.05
2023-01-01T10:08:52.547Z,80.72
2023-01-01T10:11:27.833Z,81.09
2023-01-01T10:13:58.931Z,81.30
2023-01-01T10:16:34.590Z,81.29
2023-01-01T10:19:12.576Z,80.87
2023-01-01T10:21:47.159Z,81.63
2023-01-01T10:24:32.676Z,81.15
2023-01-01T10:27:04.999Z,80.91
2023-01-01T10:29:41.639Z,81.24
2023-01-01T10:32:19.791Z,81.17
2023-01-01T10:34:48.285Z,81.61
2023-01-01T10:37:16.455Z,81.23
2023-01-01T10:39:46.276Z,81.48
2023-01-01T10:42:16.932Z,81.27
2023-01-01T10:44:44.995Z,81.84
2023-01-01T10:47:25.754Z,81.55
2023-01-01T10:49:58.851Z,81.79
2023-01-01T10:52:31.603Z,82.13
2023-01-01T10:55:01.031Z,81.87
2023-01-01T10:57:37.782Z,82.14
2023-01-01T11:00:24.223Z,82.07
2023-01-01T11:03:15.698Z,81.61
2023-01-01T11:06:05.229Z,81.70
2023-01-01T11:08:36.530Z,81.47
2023-01-01T11:11:05.346Z,81.29
2023-01-01T11:13:35.224Z,81.87
2023-01-01T11:16:12.554Z,81.40
2023-01-01T11:18:40.419Z,81.81
2023-01-01T11:21:09.026Z,81.71
2023-01-01T11:23:39.120Z,81.65
2023-01-01T11:26:20.150Z,81.37
2023-01-01T11:29:02.769Z,81.85
2023-01-01T11:31:35.275Z,81.77
2023-01-01T11:34:05.629Z,81.79
2023-01-01T11:36:35.967Z,81.41
2023-01-01T11:39:23.430Z,80.31
2023-01-01T11:41:53.772Z,81.02
2023-01-01T11:44:35.626Z,81.41
2023-01-01T11:47:05.460Z,81.44
2023-01-01T11:49:34.115Z,81.12
2023-01-01T11:52:02.150Z,81.37
2023-01-01T11:54:35.946Z,81.17
2023-01-01T11:57:08.680Z,81.29
2023-01-01T11:59:47.245Z,80.49
2023-01-01T12:02:26.270Z,80.31
2023-01-01T12:05:02.390Z,80.17
2023-01-01T12:07:35.472Z,79.93
2023-01-01T12:10:07.701Z,80.15
2023-01-01T12:12:39.951Z,79.91
2023-01-01T12:15:20.000Z,79.02
2023-01-01T12:17:55.367Z,79.33
2023-01-01T12:20:31.217Z,79.81
2023-01-01T12:23:00.610Z,79.28
2023-01-01T12:25:37.087Z,79.12
2023-01-01T12:28:16.488Z,78.65
2023-01-01T12:30:55.529Z,78.53
2023-01-01T12:33:43.159Z,79.11
2023-01-01T12:36:25.860Z,78.39
2023-01-01T12:39:41.002Z,78.45
2023-01-01T12:42:17.591Z,78.35
2023-01-01T12:44:58.984Z,77.82
2023-01-01T12:47:41.601Z,77.72
2023-01-01T12:50:18.125Z,78.29
2023-01-01T12:53:00.740Z,77.35
2023-01-01T12:56:09.420Z,78.33
2023-01-01T12:58:41.728Z,77.90
2023-01-01T13:01:14.146Z,78.16
2023-01-01T13:03:50.057Z,78.21
2023-01-01T13:06:24.892Z,77.86
2023-01-01T13:09:08.112Z,77.33
2023-01-01T13:11:44.578Z,78.34
2023-01-01T13:14:13.680Z,78.03
2023-01-01T13:16:43.375Z,78.28
2023-01-01T13:19:27.064Z,77.49
2023-01-01T13:21:55.189Z,78.09
2023-01-01T13:24:25.554Z,77.88
2023-01-01T13:26:54.945Z,77.89
2023-01-01T13:29:47.304Z,77.70
2023-01-01T13:32:16.247Z,78.48
2023-01-01T13:35:17.205Z,78.28
2023-01-01T13:37:46.819Z,78.39
2023-01-01T13:40:49.454Z,77.99
2023-01-01T13:43:35.204Z,78.48
2023-01-01T13:46:14.572Z,78.53
2023-01-01T13:49:01.482Z,78.67
2023-01-01T13:52:06.832Z,78.06
2023-01-01T13:55:09.183Z,78.27
2023-01-01T13:58:03.444Z,77.85
2023-01-01T14:00:37.032Z,77.79
2023-01-01T14:03:13.334Z,77.88
2023-01-01T14:05:46.395Z,77.96
2023-01-01T14:08:31.391Z,77.35
2023-01-01T14:11:03.437Z,77.99
2023-01-01T14:13:40.058Z,77.99
2023-01-01T14:16:13.591Z,78.63
2023-01-01T14:18:44.543Z,78.56
2023-01-01T14:21:15.699Z,77.58
2023-01-01T14:23:47.866Z,77.90
2023-01-01T14:26:19.053Z,78.13
2023-01-01T14:28:50.390Z,78.39
2023-01-01T14:31:21.161Z,78.55
2023-01-01T14:33:49.413Z,78.85
2023-01-01T14:36:21.760Z,78.40
2023-01-01T14:38:53.288Z,78.45
2023-01-01T14:41:30.682Z,78.63
2023-01-01T14:44:03.778Z,78.91
2023-01-01T14:46:32.585Z,78.40
2023-01-01T14:49:04.581Z,78.78
2023-01-01T14:51:33.276Z,78.64
2023-01-01T14:54:04.368Z,78.73
2023-01-01T14:56:34.844Z,78.43
2023-01-01T14:59:07.966Z,78.35
2023-01-01T15:01:35.999Z,78.84
2023-01-01T15:04:06.549Z,78.81
2023-01-01T15:06:34.705Z,78.89
2023-01-01T15:09:04.208Z,78.95
2023-01-01T15:11:32.741Z,77.92
2023-01-01T15:14:03.141Z,78.53
2023-01-01T15:16:39.673Z,78.20
2023-01-01T15:19:19.462Z,77.67
2023-01-01T15:21:47.645Z,78.05
2023-01-01T15:24:22.297Z,78.08
2023-01-01T15:26:53.088Z,78.23
2023-01-01T15:29:28.606Z,78.39
2023-01-01T15:32:00.053Z,78.21
2023-01-01T15:34:31.758Z,78.17
2023-01-01T15:37:11.477Z,77.75
2023-01-01T15:39:52.145Z,78.63
2023-01-01T15:42:24.698Z,78.10
2023-01-01T15:44:52.603Z,78.31
2023-01-01T15:47:26.542Z,78.35
2023-01-01T15:50:08.852Z,78.53
2023-01-01T15:52:39.694Z,78.55
2023-01-01T15:55:15.802Z,78.15
2023-01-01T15:57:46.585Z,78.61
2023-01-01T16:00:21.066Z,79.01
2023-01-01T16:02:50.443Z,78.91
2023-01-01T16:05:22.720Z,79.43
2023-01-01T16:07:59.309Z,79.50
2023-01-01T16:10:28.556Z,79.65
2023-01-01T16:12:56.487Z,79.75
2023-01-01T16:15:24.645Z,80.28
2023-01-01T16:17:52.969Z,80.28
2023-01-01T16:20:22.695Z,79.89
2023-01-01T16:22:50.778Z,80.33
2023-01-01T16:25:21.011Z,80.86
2023-01-01T16:27:50.385Z,81.06
2023-01-01T16:30:18.368Z,81.09
2023-01-01T16:32:46.461Z,81.17
2023-01-01T16:35:15.051Z,81.65
2023-01-01T16:37:43.007Z,81.44
2023-01-01T16:40:11.746Z,82.20
2023-01-01T16:42:39.555Z,82.18
2023-01-01T16:45:14.253Z,82.32
2023-01-01T16:47:42.109Z,83.13
2023-01-01T16:50:13.042Z,83.54
2023-01-01T16:52:44.692Z,84.29
2023-01-01T16:55:13.420Z,84.53
2023-01-01T16:57:41.408Z,85.50
2023-01-01T17:00:12.219Z,85.36
2023-01-01T17:02:40.278Z,85.96
2023-01-01T17:05:09.192Z,86.63
2023-01-01T17:07:37.016Z,88.05
2023-01-01T17:10:05.508Z,88.30
2023-01-01T17:12:33.542Z,88.63
2023-01-01T17:15:01.409Z,89.68
2023-01-01T17:17:30.641Z,90.04
2023-01-01T17:19:58.650Z,90.17
2023-01-01T17:22:30.695Z,90.97
2023-01-01T17:25:01.888Z,90.88
2023-01-01T17:27:29.742Z,91.07
2023-01-01T17:29:57.846Z,90.52
2023-01-01T17:32:25.683Z,90.65
2023-01-01T17:34:54.824Z,90.58
2023-01-01T17:37:22.778Z,91.42
2023-01-01T17:39:50.579Z,91.32
2023-01-01T17:42:18.449Z,91.85
2023-01-01T17:44:46.322Z,92.65
2023-01-01T17:47:14.193Z,93.68
2023-01-01T17:49:43.983Z,93.30
2023-01-01T17:52:13.315Z,94.52
2023-01-01T17:54:41.129Z,93.41
2023-01-01T17:57:08.984Z,94.50
2023-01-01T17:59:36.854Z,93.63
2023-01-01T18:02:05.926Z,94.43
2023-01-01T18:04:34.179Z,94.90
2023-01-01T18:07:06.307Z,95.59
2023-01-01T18:09:38.154Z,95.88
2023-01-01T18:12:06.931Z,97.80
2023-01-01T18:14:34.898Z,96.41
2023-01-01T18:17:02.788Z,96.64
2023-01-01T18:19:32.289Z,96.13
2023-01-01T18:22:00.235Z,96.62
2023-01-01T18:24:28.205Z,97.30
2023-01-01T18:26:57.518Z,97.05
2023-01-01T18:29:25.670Z,97.44
2023-01-01T18:31:53.505Z,97.47
2023-01-01T18:34:21.484Z,96.84
2023-01-01T18:36:49.446Z,96.96
2023-01-01T18:39:22.060Z,97.24
2023-01-01T18:42:29.468Z,97.64
2023-01-01T18:45:03.518Z,98.47
2023-01-01T18:47:32.390Z,98.02
2023-01-01T18:50:15.461Z,98.15
2023-01-01T18:52:43.348Z,97.83
2023-01-01T18:55:16.649Z,97.40
2023-01-01T18:57:49.337Z,97.50
2023-01-01T19:00:22.483Z,97.63
2023-01-01T19:02:56.629Z,97.54
2023-01-01T19:05:27.429Z,97.83
2023-01-01T19:08:03.052Z,97.67
2023-01-01T19:10:37.053Z,97.25
2023-01-01T19:13:24.160Z,97.21
2023-01-01T19:15:55.450Z,98.09
2023-01-01T19:18:24.921Z,97.81
2023-01-01T19:20:59.381Z,98.44
2023-01-01T19:23:27.322Z,98.52
2023-01-01T19:26:03.193Z,98.17
2023-01-01T19:28:39.905Z,99.21
2023-01-01T19:31:08.365Z,98.84
2023-01-01T19:33:36.176Z,99.39
2023-01-01T19:36:04.005Z,100.00
2023-01-01T19:38:31.787Z,100.00
2023-01-01T19:40:59.891Z,100.00
2023-01-01T19:43:27.741Z,100.00
2023-01-01T19:45:57.144Z,100.00
2023-01-01T19:48:25.337Z,100.00
2023-01-01T19:50:53.384Z,100.00
2023-01-01T19:53:21.202Z,100.00
2023-01-01T19:55:49.255Z,100.00
2023-01-01T19:58:19.708Z,100.00
2023-01-01T20:00:47.767Z,100.00
2023-01-01T20:06:05.465Z,100.00
2023-01-01T20:08:33.414Z,100.00
2023-01-01T20:11:02.243Z,100.00
2023-01-01T20:13:32.085Z,100.00
2023-01-01T20:16:05.819Z,100.00
2023-01-01T20:18:35.175Z,100.00
2023-01-01T20:21:25.578Z,100.00
2023-01-01T20:23:54.261Z,100.00
2023-01-01T20:26:23.815Z,100.00
2023-01-01T20:29:09.324Z,100.00
2023-01-01T20:31:53.928Z,100.00
2023-01-01T20:34:24.223Z,100.00
2023-01-01T20:37:09.793Z,100.00
2023-01-01T20:39:40.499Z,100.00
2023-01-01T20:42:08.268Z,100.00
2023-01-01T20:44:36.839Z,100.00
2023-01-01T20:47:04.673Z,100.00
2023-01-01T20:49:33.869Z,100.00
2023-01-01T20:52:01.718Z,100.00
2023-01-01T20:54:29.789Z,100.00
2023-01-01T20:56:57.673Z,100.00
2023-01-01T20:59:35.383Z,100.00
2023-01-01T21:02:04.926Z,100.00
2023-01-01T21:04:38.718Z,100.00
2023-01-01T21:07:08.238Z,100.00
2023-01-01T21:09:36.566Z,100.00
2023-01-01T21:12:04.911Z,100.00
2023-01-01T21:14:32.994Z,100.00
2023-01-01T21:17:01.997Z,100.00
2023-01-01T21:19:30.010Z,100.00
2023-01-01T21:21:59.554Z,100.00
2023-01-01T21:24:29.147Z,100.00
2023-01-01T21:27:03.926Z,100.00
2023-01-01T21:29:33.692Z,100.00
2023-01-01T21:32:15.317Z,100.00
2023-01-01T21:34:44.563Z,100.00
2023-01-01T21:37:41.864Z,100.00
2023-01-01T21:40:41.372Z,100.00
2023-01-01T21:43:25.273Z,100.00
2023-01-01T21:45:53.801Z,100.00
2023-01-01T21:48:28.490Z,100.00
2023-01-01T21:50:56.956Z,100.00
2023-01-01T21:53:30.157Z,100.00
2023-01-01T21:55:58.710Z,100.00
2023-01-01T21:58:48.321Z,100.00
2023-01-01T22:01:22.223Z,100.00
2023-01-01T22:03:54.920Z,100.00
2023-01-01T22:06:22.777Z,100.00
2023-01-01T22:08:51.969Z,100.00
2023-01-01T22:11:26.883Z,100.00
2023-01-01T22:13:55.561Z,100.00
2023-01-01T22:16:29.292Z,100.00
2023-01-01T22:18:57.405Z,100.00
2023-01-01T22:21:25.260Z,100.00
2023-01-01T22:23:57.774Z,100.00
2023-01-01T22:26:28.655Z,100.00
2023-01-01T22:29:00.885Z,100.00
2023-01-01T22:31:32.163Z,100.00
2023-01-01T22:34:03.455Z,100.00
2023-01-01T22:36:35.160Z,100.00
2023-01-01T22:39:12.400Z,100.00
2023-01-01T22:41:40.626Z,100.00
2023-01-01T22:44:08.676Z,100.00
2023-01-01T22:46:38.841Z,100.00
2023-01-01T22:49:19.778Z,100.00
2023-01-01T22:51:48.500Z,100.00
2023-01-01T22:54:17.755Z,100.00
2023-01-01T22:56:45.557Z,100.00
2023-01-01T22:59:13.486Z,100.00
2023-01-01T23:01:41.548Z,100.00
2023-01-01T23:04:09.525Z,100.00
2023-01-01T23:06:37.434Z,100.00
2023-01-01T23:09:06.871Z,100.00
2023-01-01T23:11:36.066Z,100.00
2023-01-01T23:14:21.456Z,100.00
2023-01-01T23:16:50.837Z,100.00
2023-01-01T23:19:18.665Z,100.00
2023-01-01T23:21:46.786Z,100.00
2023-01-01T23:24:18.137Z,100.00
2023-01-01T23:26:48.814Z,99.88
2023-01-01T23:29:18.325Z,100.00
2023-01-01T23:31:47.113Z,100.00
2023-01-01T23:34:15.651Z,100.00
2023-01-01T23:36:44.867Z,99.36
2023-01-01T23:39:12.733Z,99.96
2023-01-01T23:41:40.755Z,99.70
2023-01-01T23:44:10.004Z,99.02
2023-01-01T23:46:39.872Z,98.41
2023-01-01T23:49:08.388Z,98.45
2023-01-01T23:51:37.101Z,97.79
2023-01-01T23:54:04.987Z,97.78
2023-01-01T23:56:32.856Z,97.92
2023-01-01T23:59:00.824Z,97.42
